sensor_id;sensor_type;location;lat;lon;timestamp;pressure;altitude;pressure_sealevel;temperature;humidity
74798;BME280;63326;45.088;7.658;2024-01-15T00:00:21;97741.78;;;-2.56;100.00
74798;BME280;63326;45.088;7.658;2024-01-15T00:02:48;97746.97;;;-2.45;100.00
74798;BME280;63326;45.088;7.658;2024-01-15T00:05:15;97709.97;;;-2.63;100.00
74798;BME280;63326;45.088;7.658;2024-01-15T00:07:41;97763.50;;;-2.33;100.00
74798;BME280;63326;45.088;7.658;2024-01-15T00:10:08;97757.44;;;-2.34;100.00
74798;BME280;63326;45.088;7.658;2024-01-15T00:12:35;97728.84;;;-2.69;100.00
74798;BME280;63326;45.088;7.658;2024-01-15T00:15:02;97734.03;;;-2.79;100.00
74798;BME280;63326;45.088;7.658;2024-01-15T00:17:47;97753.97;;;-2.76;100.00
74798;BME280;63326;45.088;7.658;2024-01-15T00:20:15;97723.03;;;-2.93;100.00
74798;BME280;63326;45.088;7.658;2024-01-15T00:22:41;97743.38;;;-2.86;100.00
74798;BME280;63326;45.088;7.658;2024-01-15T00:29:31;97766.72;;;-2.92;100.00
74798;BME280;63326;45.088;7.658;2024-01-15T00:31:58;97754.84;;;-3.08;100.00
74798;BME280;63326;45.088;7.658;2024-01-15T00:34:25;97728.03;;;-3.22;100.00
74798;BME280;63326;45.088;7.658;2024-01-15T00:36:51;97741.75;;;-3.19;100.00
74798;BME280;63326;45.088;7.658;2024-01-15T00:39:18;97697.06;;;-3.40;100.00
74798;BME280;63326;45.088;7.658;2024-01-15T00:41:45;97707.34;;;-3.16;100.00
74798;BME280;63326;45.088;7.658;2024-01-15T00:44:12;97665.81;;;-3.11;100.00
74798;BME280;63326;45.088;7.658;2024-01-15T00:46:45;97725.53;;;-2.71;100.00
74798;BME280;63326;45.088;7.658;2024-01-15T00:49:13;97666.72;;;-3.00;100.00
74798;BME280;63326;45.088;7.658;2024-01-15T00:51:41;97719.66;;;-2.63;100.00
74798;BME280;63326;45.088;7.658;2024-01-15T00:54:08;97660.22;;;-2.96;100.00
74798;BME280;63326;45.088;7.658;2024-01-15T00:56:35;97688.56;;;-2.79;100.00
74798;BME280;63326;45.088;7.658;2024-01-15T00:59:02;97673.34;;;-2.96;100.00
74798;BME280;63326;45.088;7.658;2024-01-15T01:01:28;97623.56;;;-3.40;100.00
74798;BME280;63326;45.088;7.658;2024-01-15T01:03:56;97667.88;;;-3.25;100.00
74798;BME280;63326;45.088;7.658;2024-01-15T01:06:24;97670.22;;;-3.32;100.00
74798;BME280;63326;45.088;7.658;2024-01-15T01:08:51;97623.09;;;-3.66;100.00
74798;BME280;63326;45.088;7.658;2024-01-15T01:11:18;97644.22;;;-3.46;100.00
74798;BME280;63326;45.088;7.658;2024-01-15T01:13:44;97637.50;;;-3.60;100.00
74798;BME280;63326;45.088;7.658;2024-01-15T01:16:11;97613.47;;;-3.76;100.00
74798;BME280;63326;45.088;7.658;2024-01-15T01:18:38;97682.88;;;-3.16;100.00
74798;BME280;63326;45.088;7.658;2024-01-15T01:21:05;97686.75;;;-2.99;100.00
74798;BME280;63326;45.088;7.658;2024-01-15T01:23:31;97605.06;;;-3.38;100.00
74798;BME280;63326;45.088;7.658;2024-01-15T01:25:58;97638.31;;;-3.07;100.00
74798;BME280;63326;45.088;7.658;2024-01-15T01:28:25;97614.38;;;-3.13;100.00
74798;BME280;63326;45.088;7.658;2024-01-15T01:30:51;97605.91;;;-3.17;100.00
74798;BME280;63326;45.088;7.658;2024-01-15T01:33:18;97682.84;;;-2.84;100.00
74798;BME280;63326;45.088;7.658;2024-01-15T01:35:45;97692.56;;;-2.96;100.00
74798;BME280;63326;45.088;7.658;2024-01-15T01:38:13;97645.88;;;-3.34;100.00
74798;BME280;63326;45.088;7.658;2024-01-15T01:40:39;97626.81;;;-3.47;100.00
74798;BME280;63326;45.088;7.658;2024-01-15T01:43:06;97636.50;;;-3.48;100.00
74798;BME280;63326;45.088;7.658;2024-01-15T01:45:35;97685.22;;;-3.23;100.00
74798;BME280;63326;45.088;7.658;2024-01-15T01:48:02;97679.72;;;-2.99;100.00
74798;BME280;63326;45.088;7.658;2024-01-15T01:50:29;97618.47;;;-3.41;100.00
74798;BME280;63326;45.088;7.658;2024-01-15T01:52:58;97701.56;;;-2.98;100.00
74798;BME280;63326;45.088;7.658;2024-01-15T01:55:27;97670.66;;;-3.27;100.00
74798;BME280;63326;45.088;7.658;2024-01-15T01:57:56;97717.09;;;-3.07;100.00
74798;BME280;63326;45.088;7.658;2024-01-15T02:00:23;97598.59;;;-3.76;100.00
74798;BME280;63326;45.088;7.658;2024-01-15T02:02:50;97640.47;;;-3.53;100.00
74798;BME280;63326;45.088;7.658;2024-01-15T02:05:21;97634.25;;;-3.52;100.00
74798;BME280;63326;45.088;7.658;2024-01-15T02:07:48;97639.78;;;-3.35;100.00
74798;BME280;63326;45.088;7.658;2024-01-15T02:10:15;97632.03;;;-3.36;100.00
74798;BME280;63326;45.088;7.658;2024-01-15T02:12:42;97615.00;;;-3.42;100.00
74798;BME280;63326;45.088;7.658;2024-01-15T02:15:10;97649.06;;;-3.30;100.00
74798;BME280;63326;45.088;7.658;2024-01-15T02:17:59;97629.09;;;-3.43;100.00
74798;BME280;63326;45.088;7.658;2024-01-15T02:20:27;97598.16;;;-3.60;100.00
74798;BME280;63326;45.088;7.658;2024-01-15T02:22:54;97616.66;;;-3.62;100.00
74798;BME280;63326;45.088;7.658;2024-01-15T02:25:21;97647.38;;;-3.52;100.00
74798;BME280;63326;45.088;7.658;2024-01-15T02:27:47;97651.75;;;-3.42;100.00
74798;BME280;63326;45.088;7.658;2024-01-15T02:30:15;97612.28;;;-3.72;100.00
74798;BME280;63326;45.088;7.658;2024-01-15T02:32:42;97626.09;;;-3.70;100.00
74798;BME280;63326;45.088;7.658;2024-01-15T02:35:09;97654.25;;;-3.40;100.00
74798;BME280;63326;45.088;7.658;2024-01-15T02:37:35;97658.63;;;-3.09;100.00
74798;BME280;63326;45.088;7.658;2024-01-15T02:40:02;97602.38;;;-3.27;100.00
74798;BME280;63326;45.088;7.658;2024-01-15T02:42:30;97569.16;;;-3.58;100.00
74798;BME280;63326;45.088;7.658;2024-01-15T02:44:56;97585.75;;;-3.37;100.00
74798;BME280;63326;45.088;7.658;2024-01-15T02:47:23;97612.44;;;-3.32;100.00
74798;BME280;63326;45.088;7.658;2024-01-15T02:49:50;97575.34;;;-3.59;100.00
74798;BME280;63326;45.088;7.658;2024-01-15T02:52:17;97607.44;;;-3.35;100.00
74798;BME280;63326;45.088;7.658;2024-01-15T02:54:44;97634.22;;;-3.20;100.00
74798;BME280;63326;45.088;7.658;2024-01-15T02:57:11;97637.41;;;-3.17;100.00
74798;BME280;63326;45.088;7.658;2024-01-15T02:59:37;97579.72;;;-3.49;100.00
74798;BME280;63326;45.088;7.658;2024-01-15T03:02:04;97577.34;;;-3.52;100.00
74798;BME280;63326;45.088;7.658;2024-01-15T03:04:31;97631.03;;;-3.24;100.00
74798;BME280;63326;45.088;7.658;2024-01-15T03:06:58;97629.81;;;-3.20;100.00
74798;BME280;63326;45.088;7.658;2024-01-15T03:09:24;97558.38;;;-3.55;100.00
74798;BME280;63326;45.088;7.658;2024-01-15T03:11:51;97566.25;;;-3.55;100.00
74798;BME280;63326;45.088;7.658;2024-01-15T03:14:18;97602.25;;;-3.25;100.00
74798;BME280;63326;45.088;7.658;2024-01-15T03:16:44;97593.31;;;-3.23;100.00
74798;BME280;63326;45.088;7.658;2024-01-15T03:19:11;97601.47;;;-2.95;100.00
74798;BME280;63326;45.088;7.658;2024-01-15T03:21:38;97580.78;;;-2.89;100.00
74798;BME280;63326;45.088;7.658;2024-01-15T03:24:05;97543.63;;;-3.05;100.00
74798;BME280;63326;45.088;7.658;2024-01-15T03:26:31;97562.84;;;-2.84;100.00
74798;BME280;63326;45.088;7.658;2024-01-15T03:28:58;97579.25;;;-2.61;100.00
74798;BME280;63326;45.088;7.658;2024-01-15T03:31:25;97594.47;;;-2.55;100.00
74798;BME280;63326;45.088;7.658;2024-01-15T03:33:52;97560.22;;;-2.74;100.00
74798;BME280;63326;45.088;7.658;2024-01-15T03:36:18;97523.50;;;-2.95;100.00
74798;BME280;63326;45.088;7.658;2024-01-15T03:38:45;97558.66;;;-2.56;100.00
74798;BME280;63326;45.088;7.658;2024-01-15T03:41:12;97520.47;;;-3.00;100.00
74798;BME280;63326;45.088;7.658;2024-01-15T03:43:39;97574.56;;;-2.57;100.00
74798;BME280;63326;45.088;7.658;2024-01-15T03:46:06;97568.63;;;-2.50;100.00
74798;BME280;63326;45.088;7.658;2024-01-15T03:48:33;97485.38;;;-2.89;100.00
74798;BME280;63326;45.088;7.658;2024-01-15T03:51:00;97507.69;;;-2.74;100.00
74798;BME280;63326;45.088;7.658;2024-01-15T03:53:27;97499.78;;;-2.74;100.00
74798;BME280;63326;45.088;7.658;2024-01-15T03:55:53;97518.56;;;-2.38;100.00
74798;BME280;63326;45.088;7.658;2024-01-15T03:58:20;97538.81;;;-2.29;100.00
74798;BME280;63326;45.088;7.658;2024-01-15T04:00:47;97540.22;;;-2.06;100.00
74798;BME280;63326;45.088;7.658;2024-01-15T04:03:14;97542.56;;;-2.03;100.00
74798;BME280;63326;45.088;7.658;2024-01-15T04:05:41;97495.91;;;-2.20;100.00
74798;BME280;63326;45.088;7.658;2024-01-15T04:08:07;97473.91;;;-2.19;100.00
74798;BME280;63326;45.088;7.658;2024-01-15T04:10:34;97512.41;;;-1.89;100.00
74798;BME280;63326;45.088;7.658;2024-01-15T04:13:01;97488.44;;;-1.96;100.00
74798;BME280;63326;45.088;7.658;2024-01-15T04:15:30;97473.63;;;-1.87;100.00
74798;BME280;63326;45.088;7.658;2024-01-15T04:17:56;97446.19;;;-2.04;100.00
74798;BME280;63326;45.088;7.658;2024-01-15T04:20:23;97501.88;;;-1.60;100.00
74798;BME280;63326;45.088;7.658;2024-01-15T04:22:52;97514.44;;;-1.44;100.00
74798;BME280;63326;45.088;7.658;2024-01-15T04:25:18;97504.59;;;-1.52;100.00
74798;BME280;63326;45.088;7.658;2024-01-15T04:27:45;97490.34;;;-1.59;100.00
74798;BME280;63326;45.088;7.658;2024-01-15T04:30:12;97468.88;;;-1.64;100.00
74798;BME280;63326;45.088;7.658;2024-01-15T04:32:39;97494.78;;;-1.50;100.00
74798;BME280;63326;45.088;7.658;2024-01-15T04:35:06;97474.13;;;-1.64;100.00
74798;BME280;63326;45.088;7.658;2024-01-15T04:37:33;97481.72;;;-1.51;100.00
74798;BME280;63326;45.088;7.658;2024-01-15T04:40:02;97479.91;;;-1.41;100.00
74798;BME280;63326;45.088;7.658;2024-01-15T04:42:30;97449.47;;;-1.53;100.00
74798;BME280;63326;45.088;7.658;2024-01-15T04:44:57;97488.50;;;-1.30;100.00
74798;BME280;63326;45.088;7.658;2024-01-15T04:47:24;97491.13;;;-1.30;100.00
74798;BME280;63326;45.088;7.658;2024-01-15T04:49:51;97463.44;;;-1.43;100.00
74798;BME280;63326;45.088;7.658;2024-01-15T04:52:18;97459.81;;;-1.42;100.00
74798;BME280;63326;45.088;7.658;2024-01-15T04:54:45;97461.34;;;-1.30;100.00
74798;BME280;63326;45.088;7.658;2024-01-15T04:57:12;97497.44;;;-1.13;100.00
74798;BME280;63326;45.088;7.658;2024-01-15T04:59:38;97466.97;;;-1.25;100.00
74798;BME280;63326;45.088;7.658;2024-01-15T05:02:06;97500.03;;;-1.03;100.00
74798;BME280;63326;45.088;7.658;2024-01-15T05:04:32;97449.56;;;-1.36;100.00
74798;BME280;63326;45.088;7.658;2024-01-15T05:06:59;97464.06;;;-1.22;100.00
74798;BME280;63326;45.088;7.658;2024-01-15T05:09:26;97456.16;;;-1.22;100.00
74798;BME280;63326;45.088;7.658;2024-01-15T05:11:57;97488.44;;;-1.10;100.00
74798;BME280;63326;45.088;7.658;2024-01-15T05:14:23;97494.41;;;-1.18;100.00
74798;BME280;63326;45.088;7.658;2024-01-15T05:16:50;97500.75;;;-1.11;100.00
74798;BME280;63326;45.088;7.658;2024-01-15T05:19:18;97533.81;;;-0.79;100.00
74798;BME280;63326;45.088;7.658;2024-01-15T05:21:45;97435.84;;;-1.39;100.00
74798;BME280;63326;45.088;7.658;2024-01-15T05:24:12;97440.38;;;-1.32;100.00
74798;BME280;63326;45.088;7.658;2024-01-15T05:26:38;97412.03;;;-1.47;100.00
74798;BME280;63326;45.088;7.658;2024-01-15T05:29:05;97465.28;;;-1.16;100.00
74798;BME280;63326;45.088;7.658;2024-01-15T05:31:32;97475.28;;;-1.10;100.00
74798;BME280;63326;45.088;7.658;2024-01-15T05:33:59;97460.59;;;-1.22;100.00
74798;BME280;63326;45.088;7.658;2024-01-15T05:36:26;97468.66;;;-1.24;100.00
74798;BME280;63326;45.088;7.658;2024-01-15T05:38:53;97463.78;;;-1.19;100.00
74798;BME280;63326;45.088;7.658;2024-01-15T05:41:19;97476.47;;;-1.05;100.00
74798;BME280;63326;45.088;7.658;2024-01-15T05:43:46;97445.75;;;-1.23;100.00
74798;BME280;63326;45.088;7.658;2024-01-15T05:46:13;97461.56;;;-1.23;100.00
74798;BME280;63326;45.088;7.658;2024-01-15T05:48:40;97431.84;;;-1.53;100.00
74798;BME280;63326;45.088;7.658;2024-01-15T05:51:07;97449.41;;;-1.34;100.00
74798;BME280;63326;45.088;7.658;2024-01-15T05:53:34;97434.50;;;-1.53;100.00
74798;BME280;63326;45.088;7.658;2024-01-15T05:56:01;97451.72;;;-1.68;100.00
74798;BME280;63326;45.088;7.658;2024-01-15T05:58:27;97458.13;;;-1.80;100.00
74798;BME280;63326;45.088;7.658;2024-01-15T06:00:54;97440.41;;;-1.98;100.00
74798;BME280;63326;45.088;7.658;2024-01-15T06:03:21;97409.97;;;-2.29;100.00
74798;BME280;63326;45.088;7.658;2024-01-15T06:05:48;97459.50;;;-2.15;100.00
74798;BME280;63326;45.088;7.658;2024-01-15T06:08:14;97440.41;;;-2.36;100.00
74798;BME280;63326;45.088;7.658;2024-01-15T06:10:41;97469.03;;;-2.14;100.00
74798;BME280;63326;45.088;7.658;2024-01-15T06:13:08;97431.00;;;-2.29;100.00
74798;BME280;63326;45.088;7.658;2024-01-15T06:15:34;97444.81;;;-2.37;100.00
74798;BME280;63326;45.088;7.658;2024-01-15T06:18:01;97474.59;;;-2.07;100.00
74798;BME280;63326;45.088;7.658;2024-01-15T06:20:28;97392.25;;;-2.47;100.00
74798;BME280;63326;45.088;7.658;2024-01-15T06:22:55;97464.22;;;-2.19;100.00
74798;BME280;63326;45.088;7.658;2024-01-15T06:25:21;97428.09;;;-2.26;100.00
74798;BME280;63326;45.088;7.658;2024-01-15T06:27:48;97427.25;;;-2.27;100.00
74798;BME280;63326;45.088;7.658;2024-01-15T06:30:15;97432.66;;;-2.28;100.00
74798;BME280;63326;45.088;7.658;2024-01-15T06:32:42;97459.78;;;-2.28;100.00
74798;BME280;63326;45.088;7.658;2024-01-15T06:35:08;97392.81;;;-2.62;100.00
74798;BME280;63326;45.088;7.658;2024-01-15T06:37:37;97447.06;;;-2.32;100.00
74798;BME280;63326;45.088;7.658;2024-01-15T06:40:04;97400.25;;;-2.67;100.00
74798;BME280;63326;45.088;7.658;2024-01-15T06:42:32;97386.81;;;-2.93;100.00
74798;BME280;63326;45.088;7.658;2024-01-15T06:44:59;97398.53;;;-2.97;100.00
74798;BME280;63326;45.088;7.658;2024-01-15T06:47:25;97464.16;;;-2.67;100.00
74798;BME280;63326;45.088;7.658;2024-01-15T06:49:52;97421.91;;;-2.94;100.00
74798;BME280;63326;45.088;7.658;2024-01-15T06:52:19;97429.38;;;-2.99;100.00
74798;BME280;63326;45.088;7.658;2024-01-15T06:54:46;97386.03;;;-3.24;100.00
74798;BME280;63326;45.088;7.658;2024-01-15T06:57:12;97426.34;;;-2.85;100.00
74798;BME280;63326;45.088;7.658;2024-01-15T06:59:39;97428.19;;;-2.66;100.00
74798;BME280;63326;45.088;7.658;2024-01-15T07:02:06;97357.19;;;-2.95;100.00
74798;BME280;63326;45.088;7.658;2024-01-15T07:04:32;97459.50;;;-2.34;100.00
74798;BME280;63326;45.088;7.658;2024-01-15T07:06:59;97414.38;;;-2.49;100.00
74798;BME280;63326;45.088;7.658;2024-01-15T07:09:26;97353.78;;;-2.57;100.00
74798;BME280;63326;45.088;7.658;2024-01-15T07:11:53;97344.53;;;-2.52;100.00
74798;BME280;63326;45.088;7.658;2024-01-15T07:14:20;97347.41;;;-2.45;100.00
74798;BME280;63326;45.088;7.658;2024-01-15T07:16:46;97363.31;;;-2.27;100.00
74798;BME280;63326;45.088;7.658;2024-01-15T07:19:14;97391.22;;;-1.88;100.00
74798;BME280;63326;45.088;7.658;2024-01-15T07:21:42;97359.53;;;-2.05;100.00
74798;BME280;63326;45.088;7.658;2024-01-15T07:24:10;97422.44;;;-1.55;100.00
74798;BME280;63326;45.088;7.658;2024-01-15T07:26:37;97435.28;;;-1.43;100.00
74798;BME280;63326;45.088;7.658;2024-01-15T07:29:04;97441.81;;;-1.37;100.00
74798;BME280;63326;45.088;7.658;2024-01-15T07:31:31;97368.06;;;-1.74;100.00
74798;BME280;63326;45.088;7.658;2024-01-15T07:33:58;97406.03;;;-1.30;100.00
74798;BME280;63326;45.088;7.658;2024-01-15T07:36:27;97352.94;;;-1.08;100.00
74798;BME280;63326;45.088;7.658;2024-01-15T07:38:55;97412.31;;;-0.23;100.00
74798;BME280;63326;45.088;7.658;2024-01-15T07:41:22;97413.78;;;0.15;100.00
74798;BME280;63326;45.088;7.658;2024-01-15T07:43:49;97425.19;;;0.68;100.00
74798;BME280;63326;45.088;7.658;2024-01-15T07:46:16;97360.03;;;0.85;100.00
74798;BME280;63326;45.088;7.658;2024-01-15T07:48:43;97364.78;;;1.15;100.00
74798;BME280;63326;45.088;7.658;2024-01-15T07:51:10;97399.00;;;1.33;100.00
74798;BME280;63326;45.088;7.658;2024-01-15T07:53:37;97364.09;;;1.13;100.00
74798;BME280;63326;45.088;7.658;2024-01-15T07:56:07;97415.28;;;1.46;100.00
74798;BME280;63326;45.088;7.658;2024-01-15T07:58:33;97432.28;;;1.52;100.00
74798;BME280;63326;45.088;7.658;2024-01-15T08:01:01;97425.28;;;1.35;100.00
74798;BME280;63326;45.088;7.658;2024-01-15T08:03:27;97392.28;;;0.96;100.00
74798;BME280;63326;45.088;7.658;2024-01-15T08:05:54;97381.84;;;0.87;100.00
74798;BME280;63326;45.088;7.658;2024-01-15T08:08:24;97414.44;;;1.03;100.00
74798;BME280;63326;45.088;7.658;2024-01-15T08:10:50;97413.31;;;1.06;100.00
74798;BME280;63326;45.088;7.658;2024-01-15T08:13:17;97383.88;;;1.59;100.00
74798;BME280;63326;45.088;7.658;2024-01-15T08:15:44;97399.97;;;2.07;100.00
74798;BME280;63326;45.088;7.658;2024-01-15T08:18:11;97429.84;;;2.64;100.00
74798;BME280;63326;45.088;7.658;2024-01-15T08:20:38;97397.84;;;2.82;100.00
74798;BME280;63326;45.088;7.658;2024-01-15T08:23:05;97429.06;;;3.19;98.86
74798;BME280;63326;45.088;7.658;2024-01-15T08:25:32;97401.84;;;3.17;95.60
74798;BME280;63326;45.088;7.658;2024-01-15T08:27:58;97375.28;;;3.25;93.14
74798;BME280;63326;45.088;7.658;2024-01-15T08:30:25;97359.06;;;3.74;88.19
74798;BME280;63326;45.088;7.658;2024-01-15T08:32:57;97350.19;;;4.05;85.22
74798;BME280;63326;45.088;7.658;2024-01-15T08:35:34;97356.84;;;4.38;81.28
74798;BME280;63326;45.088;7.658;2024-01-15T08:38:01;97402.28;;;5.40;77.32
74798;BME280;63326;45.088;7.658;2024-01-15T08:40:29;97347.88;;;5.85;71.63
74798;BME280;63326;45.088;7.658;2024-01-15T08:42:56;97399.38;;;6.14;72.49
74798;BME280;63326;45.088;7.658;2024-01-15T08:45:22;97406.53;;;6.56;69.68
74798;BME280;63326;45.088;7.658;2024-01-15T08:47:49;97410.28;;;6.19;71.72
74798;BME280;63326;45.088;7.658;2024-01-15T08:50:16;97371.72;;;5.93;72.16
74798;BME280;63326;45.088;7.658;2024-01-15T08:52:43;97401.44;;;6.96;70.07
74798;BME280;63326;45.088;7.658;2024-01-15T08:55:09;97394.59;;;7.62;63.80
74798;BME280;63326;45.088;7.658;2024-01-15T08:57:36;97408.53;;;8.32;60.27
74798;BME280;63326;45.088;7.658;2024-01-15T09:00:03;97409.56;;;7.16;60.87
74798;BME280;63326;45.088;7.658;2024-01-15T09:02:30;97429.88;;;6.82;65.04
74798;BME280;63326;45.088;7.658;2024-01-15T09:04:56;97419.94;;;6.20;67.27
74798;BME280;63326;45.088;7.658;2024-01-15T09:07:23;97426.50;;;5.81;70.60
74798;BME280;63326;45.088;7.658;2024-01-15T09:09:51;97432.38;;;5.55;71.94
74798;BME280;63326;45.088;7.658;2024-01-15T09:12:19;97357.84;;;5.04;72.70
74798;BME280;63326;45.088;7.658;2024-01-15T09:14:47;97423.66;;;5.47;73.12
74798;BME280;63326;45.088;7.658;2024-01-15T09:17:14;97385.13;;;4.69;76.59
74798;BME280;63326;45.088;7.658;2024-01-15T09:19:40;97383.06;;;4.94;75.07
74798;BME280;63326;45.088;7.658;2024-01-15T09:22:08;97416.44;;;6.19;70.60
74798;BME280;63326;45.088;7.658;2024-01-15T09:24:35;97419.22;;;7.51;66.42
74798;BME280;63326;45.088;7.658;2024-01-15T09:27:02;97389.97;;;8.77;58.19
74798;BME280;63326;45.088;7.658;2024-01-15T09:29:29;97377.41;;;8.77;56.16
74798;BME280;63326;45.088;7.658;2024-01-15T09:31:56;97416.63;;;9.94;55.01
74798;BME280;63326;45.088;7.658;2024-01-15T09:34:23;97401.56;;;10.81;50.96
74798;BME280;63326;45.088;7.658;2024-01-15T09:36:50;97378.94;;;11.32;48.30
74798;BME280;63326;45.088;7.658;2024-01-15T09:39:17;97387.34;;;11.36;47.97
74798;BME280;63326;45.088;7.658;2024-01-15T09:41:44;97352.88;;;11.81;45.98
74798;BME280;63326;45.088;7.658;2024-01-15T09:44:12;97428.34;;;12.46;45.33
74798;BME280;63326;45.088;7.658;2024-01-15T09:46:39;97402.75;;;11.95;46.58
74798;BME280;63326;45.088;7.658;2024-01-15T09:49:06;97425.72;;;12.28;45.50
74798;BME280;63326;45.088;7.658;2024-01-15T09:51:33;97379.59;;;12.24;45.21
74798;BME280;63326;45.088;7.658;2024-01-15T09:54:00;97427.13;;;12.19;45.41
74798;BME280;63326;45.088;7.658;2024-01-15T09:56:27;97401.56;;;11.91;45.08
74798;BME280;63326;45.088;7.658;2024-01-15T09:58:54;97357.88;;;11.48;45.27
74798;BME280;63326;45.088;7.658;2024-01-15T10:01:21;97349.28;;;11.57;45.23
74798;BME280;63326;45.088;7.658;2024-01-15T10:03:49;97361.41;;;11.30;45.84
74798;BME280;63326;45.088;7.658;2024-01-15T10:06:17;97390.03;;;10.49;47.99
74798;BME280;63326;45.088;7.658;2024-01-15T10:08:50;97410.88;;;10.22;49.61
74798;BME280;63326;45.088;7.658;2024-01-15T10:11:17;97398.34;;;9.78;50.97
74798;BME280;63326;45.088;7.658;2024-01-15T10:13:44;97400.94;;;9.91;50.14
74798;BME280;63326;45.088;7.658;2024-01-15T10:16:12;97417.97;;;10.42;48.09
74798;BME280;63326;45.088;7.658;2024-01-15T10:18:39;97388.31;;;9.60;49.61
74798;BME280;63326;45.088;7.658;2024-01-15T10:21:07;97389.97;;;9.61;51.08
74798;BME280;63326;45.088;7.658;2024-01-15T10:23:34;97351.03;;;9.59;51.43
74798;BME280;63326;45.088;7.658;2024-01-15T10:26:00;97315.84;;;9.80;50.86
74798;BME280;63326;45.088;7.658;2024-01-15T10:28:27;97299.84;;;10.48;47.65
74798;BME280;63326;45.088;7.658;2024-01-15T10:30:57;97326.09;;;11.08;47.16
74798;BME280;63326;45.088;7.658;2024-01-15T10:33:24;97294.28;;;11.05;47.45
74798;BME280;63326;45.088;7.658;2024-01-15T10:35:55;97334.59;;;11.72;46.26
74798;BME280;63326;45.088;7.658;2024-01-15T10:38:23;97331.69;;;12.15;44.62
74798;BME280;63326;45.088;7.658;2024-01-15T10:40:56;97325.91;;;12.30;44.36
74798;BME280;63326;45.088;7.658;2024-01-15T10:43:23;97314.66;;;11.79;45.60
74798;BME280;63326;45.088;7.658;2024-01-15T10:45:54;97317.97;;;11.63;46.02
74798;BME280;63326;45.088;7.658;2024-01-15T10:48:24;97239.69;;;11.11;46.41
74798;BME280;63326;45.088;7.658;2024-01-15T10:50:53;97294.06;;;11.55;46.48
74798;BME280;63326;45.088;7.658;2024-01-15T10:53:20;97273.22;;;11.38;45.94
74798;BME280;63326;45.088;7.658;2024-01-15T10:55:47;97226.44;;;11.58;45.81
74798;BME280;63326;45.088;7.658;2024-01-15T10:58:15;97287.88;;;12.38;44.59
74798;BME280;63326;45.088;7.658;2024-01-15T11:00:44;97260.66;;;12.04;45.28
74798;BME280;63326;45.088;7.658;2024-01-15T11:03:12;97289.59;;;12.79;43.64
74798;BME280;63326;45.088;7.658;2024-01-15T11:05:42;97266.63;;;12.06;44.69
74798;BME280;63326;45.088;7.658;2024-01-15T11:08:09;97280.28;;;11.81;46.08
74798;BME280;63326;45.088;7.658;2024-01-15T11:10:46;97282.13;;;11.21;47.64
74798;BME280;63326;45.088;7.658;2024-01-15T11:13:19;97248.19;;;11.08;48.63
74798;BME280;63326;45.088;7.658;2024-01-15T11:18:38;97191.84;;;11.73;44.79
74798;BME280;63326;45.088;7.658;2024-01-15T11:23:44;97257.22;;;11.85;46.19
74798;BME280;63326;45.088;7.658;2024-01-15T11:29:06;97237.47;;;11.38;47.91
74798;BME280;63326;45.088;7.658;2024-01-15T11:34:08;97181.59;;;10.25;50.08
74798;BME280;63326;45.088;7.658;2024-01-15T11:39:40;97222.16;;;10.35;52.07
74798;BME280;63326;45.088;7.658;2024-01-15T11:42:11;97192.06;;;10.08;51.94
74798;BME280;63326;45.088;7.658;2024-01-15T11:44:38;97173.16;;;9.53;53.36
74798;BME280;63326;45.088;7.658;2024-01-15T11:47:06;97182.06;;;9.47;54.80
74798;BME280;63326;45.088;7.658;2024-01-15T11:52:20;97162.84;;;9.19;55.45
74798;BME280;63326;45.088;7.658;2024-01-15T11:55:14;97213.28;;;9.35;55.66
74798;BME280;63326;45.088;7.658;2024-01-15T11:57:50;97218.16;;;9.00;57.92
74798;BME280;63326;45.088;7.658;2024-01-15T12:00:18;97174.34;;;8.43;59.30
74798;BME280;63326;45.088;7.658;2024-01-15T12:02:46;97198.38;;;8.56;59.76
74798;BME280;63326;45.088;7.658;2024-01-15T12:05:17;97179.66;;;8.49;60.49
74798;BME280;63326;45.088;7.658;2024-01-15T12:07:46;97129.13;;;8.35;61.33
74798;BME280;63326;45.088;7.658;2024-01-15T12:10:20;97125.19;;;8.44;60.82
74798;BME280;63326;45.088;7.658;2024-01-15T12:13:04;97150.97;;;8.70;60.27
74798;BME280;63326;45.088;7.658;2024-01-15T12:15:32;97074.88;;;8.14;60.76
74798;BME280;63326;45.088;7.658;2024-01-15T12:18:00;97115.28;;;8.44;61.64
74798;BME280;63326;45.088;7.658;2024-01-15T12:20:30;97059.78;;;8.33;61.06
74798;BME280;63326;45.088;7.658;2024-01-15T12:22:58;97038.84;;;8.23;61.18
74798;BME280;63326;45.088;7.658;2024-01-15T12:25:33;97108.69;;;8.47;60.91
74798;BME280;63326;45.088;7.658;2024-01-15T12:28:01;97028.09;;;7.85;61.93
74798;BME280;63326;45.088;7.658;2024-01-15T12:30:30;97045.09;;;8.04;62.79
74798;BME280;63326;45.088;7.658;2024-01-15T12:33:04;97096.63;;;8.31;62.50
74798;BME280;63326;45.088;7.658;2024-01-15T12:35:31;97033.41;;;7.99;61.89
74798;BME280;63326;45.088;7.658;2024-01-15T12:38:00;97110.84;;;8.25;62.39
74798;BME280;63326;45.088;7.658;2024-01-15T12:40:31;97120.03;;;8.42;62.38
74798;BME280;63326;45.088;7.658;2024-01-15T12:43:00;97065.66;;;8.10;62.58
74798;BME280;63326;45.088;7.658;2024-01-15T12:45:27;97022.69;;;7.99;61.94
74798;BME280;63326;45.088;7.658;2024-01-15T12:47:54;97042.31;;;8.31;61.95
74798;BME280;63326;45.088;7.658;2024-01-15T12:50:24;97115.94;;;8.78;61.71
74798;BME280;63326;45.088;7.658;2024-01-15T12:52:52;97039.66;;;8.31;62.02
74798;BME280;63326;45.088;7.658;2024-01-15T12:55:20;97057.84;;;8.53;61.82
74798;BME280;63326;45.088;7.658;2024-01-15T12:57:47;97048.19;;;8.52;62.43
74798;BME280;63326;45.088;7.658;2024-01-15T13:00:18;96970.63;;;8.08;62.20
74798;BME280;63326;45.088;7.658;2024-01-15T13:02:46;97075.75;;;8.85;62.20
74798;BME280;63326;45.088;7.658;2024-01-15T13:05:13;97071.03;;;7.97;64.39
74798;BME280;63326;45.088;7.658;2024-01-15T13:07:46;96882.94;;;6.75;65.91
74798;BME280;63326;45.088;7.658;2024-01-15T13:10:14;97073.69;;;8.10;65.80
74798;BME280;63326;45.088;7.658;2024-01-15T13:12:44;96948.69;;;7.48;65.78
74798;BME280;63326;45.088;7.658;2024-01-15T13:15:11;96991.09;;;7.89;65.00
74798;BME280;63326;45.088;7.658;2024-01-15T13:17:41;97058.41;;;8.17;65.17
74798;BME280;63326;45.088;7.658;2024-01-15T13:20:08;97061.88;;;8.24;65.54